Time;durP1;ratioP1;P1;durP2;ratioP2;P2;SDS_P1;SDS_P2;PMS_P1;PMS_P2;Temp;Humidity;BMP_temperature;BMP_pressure;BME280_temperature;BME280_humidity;BME280_pressure;Samples;Min_cycle;Max_cycle;Signal;HPM_P1;HPM_P2
2022/09/28 00:00:50;;;;;;;0.95;0.40;;;12.10;99.90;;;;;;6316298;28;20044;-84
2022/09/28 00:03:56;;;;;;;2.33;0.45;;;12.10;99.90;;;;;;6332133;28;20048;-84
2022/09/28 00:06:57;;;;;;;0.77;0.10;;;12.10;99.90;;;;;;6328659;28;20044;-84
2022/09/28 00:09:59;;;;;;;1.65;0.43;;;12.10;99.90;;;;;;6326950;28;20052;-83
2022/09/28 00:13:01;;;;;;;1.08;0.20;;;12.10;99.90;;;;;;6326989;28;20089;-84
2022/09/28 00:16:07;;;;;;;2.22;0.28;;;12.00;99.90;;;;;;6327918;28;20040;-84
2022/09/28 00:19:09;;;;;;;0.77;0.20;;;12.00;99.90;;;;;;6329405;28;20056;-84
2022/09/28 00:22:11;;;;;;;2.03;0.75;;;11.90;99.90;;;;;;6337747;28;20131;-84
2022/09/28 00:25:12;;;;;;;1.10;0.30;;;11.90;99.90;;;;;;6329868;28;20040;-83
2022/09/28 00:28:14;;;;;;;6.65;1.20;;;11.80;99.90;;;;;;6327615;28;20048;-83
2022/09/28 00:31:17;;;;;;;3.58;0.25;;;11.80;99.90;;;;;;6327898;28;20048;-83
2022/09/28 00:34:20;;;;;;;2.85;0.60;;;11.70;99.90;;;;;;6328512;28;20055;-84
2022/09/28 00:37:21;;;;;;;6.88;0.73;;;11.70;99.90;;;;;;6328455;28;20040;-84
2022/09/28 00:40:23;;;;;;;8.75;1.02;;;11.70;99.90;;;;;;6299576;28;20052;-82
2022/09/28 00:43:25;;;;;;;2.40;0.75;;;11.70;99.90;;;;;;6278206;28;20087;-82
2022/09/28 00:46:33;;;;;;;3.55;0.40;;;11.60;99.90;;;;;;6278411;28;20125;-82
2022/09/28 00:49:40;;;;;;;1.92;0.50;;;11.70;99.90;;;;;;6277341;28;20056;-82
2022/09/28 00:52:47;;;;;;;2.33;0.60;;;11.70;99.90;;;;;;6276588;28;20132;-84
2022/09/28 00:55:51;;;;;;;2.60;0.82;;;11.70;99.90;;;;;;6277408;28;20052;-82
2022/09/28 00:58:54;;;;;;;4.43;0.93;;;11.80;99.90;;;;;;6277987;28;20048;-82
2022/09/28 01:01:57;;;;;;;0.80;0.47;;;11.70;99.90;;;;;;6326467;28;20044;-81
2022/09/28 01:05:00;;;;;;;4.97;0.88;;;11.70;99.90;;;;;;6328937;28;20044;-83
2022/09/28 01:08:03;;;;;;;6.32;0.70;;;11.70;99.90;;;;;;6328116;28;20052;-83
2022/09/28 01:11:05;;;;;;;3.25;0.57;;;11.80;99.90;;;;;;6327624;28;20055;-83
2022/09/28 01:14:09;;;;;;;3.33;1.30;;;11.80;99.90;;;;;;6328028;28;20055;-82
2022/09/28 01:17:15;;;;;;;3.33;0.95;;;11.80;99.90;;;;;;6328279;28;20055;-82
2022/09/28 01:20:32;;;;;;;1.92;0.77;;;11.80;99.90;;;;;;6327662;28;20044;-83
2022/09/28 01:24:03;;;;;;;4.07;0.80;;;11.80;99.90;;;;;;6327607;28;20044;-84
2022/09/28 01:27:19;;;;;;;8.82;1.17;;;11.80;99.90;;;;;;6327604;28;20051;-83
2022/09/28 01:30:22;;;;;;;1.88;0.82;;;11.80;99.90;;;;;;6326999;28;20044;-82
2022/09/28 01:33:28;;;;;;;16.98;1.80;;;11.90;99.90;;;;;;6327951;28;20522;-82
2022/09/28 01:36:35;;;;;;;9.43;1.23;;;11.90;99.90;;;;;;6326874;28;20044;-83
2022/09/28 01:39:41;;;;;;;5.18;2.28;;;12.00;99.90;;;;;;6327698;28;20055;-83
2022/09/28 01:42:49;;;;;;;11.13;1.35;;;11.90;99.90;;;;;;6328048;28;20044;-84
2022/09/28 01:45:55;;;;;;;4.57;1.50;;;11.90;99.90;;;;;;6328391;28;20044;-83
2022/09/28 01:48:58;;;;;;;12.60;1.85;;;12.00;99.90;;;;;;6328171;28;20048;-84
2022/09/28 01:52:04;;;;;;;5.68;1.38;;;12.00;99.90;;;;;;6327609;28;20048;-83
2022/09/28 01:55:11;;;;;;;3.65;1.42;;;12.10;99.90;;;;;;6328323;28;20040;-84
2022/09/28 01:58:18;;;;;;;10.88;1.27;;;12.10;99.90;;;;;;6328203;28;20048;-84
2022/09/28 02:01:26;;;;;;;9.35;1.88;;;12.10;99.90;;;;;;6321868;28;20421;-85
2022/09/28 02:04:33;;;;;;;9.85;1.60;;;12.10;99.90;;;;;;6297327;28;20524;-85
2022/09/28 02:07:41;;;;;;;8.45;2.15;;;12.10;99.90;;;;;;6297319;28;20044;-83
2022/09/28 02:10:48;;;;;;;16.90;2.28;;;12.10;99.90;;;;;;6298326;28;20147;-84
2022/09/28 02:13:58;;;;;;;18.58;2.60;;;12.20;99.90;;;;;;6300104;28;20048;-84
2022/09/28 02:17:00;;;;;;;5.43;1.35;;;12.30;99.90;;;;;;6301077;28;20048;-84
2022/09/28 02:20:02;;;;;;;3.78;0.70;;;12.20;99.90;;;;;;6301114;28;20055;-85
2022/09/28 02:23:04;;;;;;;0.00;0.00;;;12.00;99.90;;;;;;6302634;28;20048;-84
2022/09/28 02:26:11;;;;;;;0.00;0.00;;;11.70;99.90;;;;;;6303007;28;20048;-85
2022/09/28 02:29:15;;;;;;;0.00;0.00;;;11.60;99.90;;;;;;6303703;28;20143;-84
2022/09/28 02:32:19;;;;;;;0.00;0.00;;;11.60;99.90;;;;;;6302905;28;20044;-85
2022/09/28 02:35:22;;;;;;;0.00;0.00;;;11.60;99.90;;;;;;6297680;28;20040;-84
2022/09/28 02:38:23;;;;;;;0.00;0.00;;;11.60;99.90;;;;;;6296495;28;20044;-84
2022/09/28 02:41:36;;;;;;;0.00;0.00;;;11.70;99.90;;;;;;6297735;28;20055;-84
2022/09/28 02:44:58;;;;;;;0.00;0.00;;;11.70;99.90;;;;;;6297637;28;20044;-84
2022/09/28 02:48:12;;;;;;;0.00;0.00;;;11.70;99.90;;;;;;6296097;28;20502;-84
2022/09/28 02:51:22;;;;;;;0.00;0.00;;;11.70;99.90;;;;;;6297137;28;20052;-84
2022/09/28 02:54:44;;;;;;;0.00;0.00;;;11.80;99.90;;;;;;6296709;28;20051;-84
2022/09/28 02:58:05;;;;;;;0.00;0.00;;;11.70;99.90;;;;;;6297147;28;20041;-84
2022/09/28 03:01:15;;;;;;;0.00;0.00;;;11.70;99.90;;;;;;6297815;28;20052;-83
2022/09/28 03:04:30;;;;;;;0.00;0.00;;;11.70;99.90;;;;;;6313333;28;20277;-84
2022/09/28 03:07:36;;;;;;;0.00;0.00;;;11.60;99.90;;;;;;6304509;28;20094;-84
2022/09/28 03:10:43;;;;;;;0.00;0.00;;;11.60;99.90;;;;;;6303932;28;20055;-84
2022/09/28 03:13:45;;;;;;;0.00;0.00;;;11.60;99.90;;;;;;6305286;28;20486;-84
2022/09/28 03:16:48;;;;;;;0.00;0.00;;;11.60;99.90;;;;;;6308289;28;20044;-85
2022/09/28 03:19:49;;;;;;;0.00;0.00;;;11.60;99.90;;;;;;6311172;28;20048;-84
2022/09/28 03:22:51;;;;;;;0.00;0.00;;;11.60;99.90;;;;;;6311811;28;20052;-84
2022/09/28 03:25:53;;;;;;;0.00;0.00;;;11.60;99.90;;;;;;6311563;28;20048;-84
2022/09/28 03:28:55;;;;;;;0.00;0.00;;;11.60;99.90;;;;;;6314929;28;20127;-84
2022/09/28 03:31:58;;;;;;;0.00;0.00;;;11.60;99.90;;;;;;6309655;28;20060;-84
2022/09/28 03:35:00;;;;;;;0.00;0.00;;;11.60;99.90;;;;;;6306137;28;20406;-84
2022/09/28 03:38:01;;;;;;;0.00;0.00;;;11.60;99.90;;;;;;6307095;28;20044;-84
2022/09/28 03:41:03;;;;;;;0.00;0.00;;;11.60;99.90;;;;;;6307147;28;20052;-84
2022/09/28 03:44:05;;;;;;;0.00;0.00;;;11.70;99.90;;;;;;6306564;28;20119;-84
2022/09/28 03:47:08;;;;;;;0.00;0.00;;;11.70;99.90;;;;;;6305341;28;20049;-84
2022/09/28 03:50:10;;;;;;;0.00;0.00;;;11.70;99.90;;;;;;6306331;28;20040;-85
2022/09/28 03:53:11;;;;;;;0.00;0.00;;;11.70;99.90;;;;;;6307639;28;20052;-85
2022/09/28 03:56:15;;;;;;;0.00;0.00;;;11.70;99.90;;;;;;6306265;28;20545;-84
2022/09/28 03:59:18;;;;;;;0.00;0.00;;;11.70;99.90;;;;;;6304596;28;20049;-84
2022/09/28 04:02:21;;;;;;;0.00;0.00;;;11.70;99.90;;;;;;6307393;28;20048;-84
2022/09/28 04:05:22;;;;;;;0.00;0.00;;;11.60;99.90;;;;;;6310783;28;20506;-83
2022/09/28 04:08:24;;;;;;;0.00;0.00;;;11.60;99.90;;;;;;6305463;28;20048;-85
2022/09/28 04:11:26;;;;;;;0.00;0.00;;;11.60;99.90;;;;;;6306327;28;20040;-84
2022/09/28 04:14:27;;;;;;;0.00;0.00;;;11.50;99.90;;;;;;6306393;28;20238;-84
2022/09/28 04:17:31;;;;;;;0.00;0.00;;;11.50;99.90;;;;;;6305343;28;20048;-83
2022/09/28 04:20:33;;;;;;;0.00;0.00;;;11.60;99.90;;;;;;6305044;28;20048;-84
2022/09/28 04:23:35;;;;;;;0.00;0.00;;;11.60;99.90;;;;;;6304312;28;20414;-85
2022/09/28 04:26:37;;;;;;;0.00;0.00;;;11.70;99.90;;;;;;6303724;28;20418;-83
2022/09/28 04:29:42;;;;;;;0.00;0.00;;;11.70;99.90;;;;;;6304710;28;20053;-85
2022/09/28 04:32:47;;;;;;;0.00;0.00;;;11.70;99.90;;;;;;6304095;28;20052;-84
2022/09/28 04:35:49;;;;;;;0.00;0.00;;;11.70;99.90;;;;;;6304673;28;20041;-84
2022/09/28 04:38:51;;;;;;;0.00;0.00;;;11.70;99.90;;;;;;6303693;28;20044;-84
2022/09/28 04:41:52;;;;;;;0.00;0.00;;;11.70;99.90;;;;;;6306112;28;20459;-84
2022/09/28 04:44:56;;;;;;;0.00;0.00;;;11.80;99.90;;;;;;6305712;28;20052;-84
2022/09/28 04:47:59;;;;;;;0.00;0.00;;;11.80;99.90;;;;;;6305795;28;20525;-85
2022/09/28 04:51:01;;;;;;;0.00;0.00;;;11.80;99.90;;;;;;6303604;28;20048;-84
2022/09/28 04:54:03;;;;;;;0.00;0.00;;;11.90;99.90;;;;;;6301999;28;20056;-84
2022/09/28 04:57:05;;;;;;;0.00;0.00;;;11.90;99.90;;;;;;6303703;28;20481;-84
2022/09/28 05:00:08;;;;;;;0.00;0.00;;;11.90;99.90;;;;;;6303763;28;20044;-84
2022/09/28 05:03:11;;;;;;;0.00;0.00;;;11.90;99.90;;;;;;6304738;28;20139;-84
2022/09/28 05:06:14;;;;;;;0.00;0.00;;;11.90;99.90;;;;;;6327737;28;20048;-84
2022/09/28 05:09:16;;;;;;;0.00;0.00;;;11.90;99.90;;;;;;6329753;28;20048;-84
2022/09/28 05:12:18;;;;;;;0.00;0.00;;;11.80;99.90;;;;;;6329129;28;20428;-84
2022/09/28 05:15:19;;;;;;;0.00;0.00;;;11.80;99.90;;;;;;6329935;28;20043;-84
2022/09/28 05:18:22;;;;;;;0.00;0.00;;;11.80;99.90;;;;;;6327913;28;20402;-83
2022/09/28 05:21:25;;;;;;;0.00;0.00;;;11.80;99.90;;;;;;6328638;28;20075;-84
2022/09/28 05:24:26;;;;;;;0.00;0.00;;;11.80;99.90;;;;;;6328183;28;20170;-84
2022/09/28 05:27:28;;;;;;;0.00;0.00;;;11.80;99.90;;;;;;6328786;28;20059;-84
2022/09/28 05:30:30;;;;;;;0.00;0.00;;;11.80;99.90;;;;;;6329625;28;20063;-83
2022/09/28 05:33:33;;;;;;;0.43;0.43;;;11.80;99.90;;;;;;6329994;28;20075;-84
2022/09/28 05:36:37;;;;;;;0.00;0.00;;;11.80;99.90;;;;;;6328338;28;20036;-82
2022/09/28 05:39:39;;;;;;;0.00;0.00;;;11.80;99.90;;;;;;6328184;28;20051;-83
2022/09/28 05:42:41;;;;;;;0.00;0.00;;;11.80;99.90;;;;;;6328879;28;20051;-83
2022/09/28 05:45:43;;;;;;;0.00;0.00;;;11.70;99.90;;;;;;6328922;28;20079;-84
2022/09/28 05:48:46;;;;;;;0.00;0.00;;;11.70;99.90;;;;;;6330642;28;20044;-83
2022/09/28 05:51:47;;;;;;;0.00;0.00;;;11.70;99.90;;;;;;6330558;28;20044;-84
2022/09/28 05:54:49;;;;;;;0.00;0.00;;;11.70;99.90;;;;;;6328428;28;20048;-84
2022/09/28 05:57:51;;;;;;;0.00;0.00;;;11.80;99.90;;;;;;6329569;28;20044;-84
2022/09/28 06:00:54;;;;;;;0.00;0.00;;;11.80;99.90;;;;;;6328446;28;20055;-87
2022/09/28 06:03:57;;;;;;;0.00;0.00;;;11.80;99.90;;;;;;6328885;28;20051;-84
2022/09/28 06:06:59;;;;;;;0.00;0.00;;;11.90;99.90;;;;;;6328617;28;20044;-84
2022/09/28 06:10:01;;;;;;;0.00;0.00;;;11.90;99.90;;;;;;6329028;28;20067;-84
2022/09/28 06:13:03;;;;;;;0.00;0.00;;;11.90;99.90;;;;;;6322948;28;20079;-86
2022/09/28 06:16:06;;;;;;;0.00;0.00;;;11.90;99.90;;;;;;6322197;28;20508;-85
2022/09/28 06:19:09;;;;;;;0.15;0.15;;;11.90;99.90;;;;;;6325759;28;20413;-84
2022/09/28 06:22:11;;;;;;;0.00;0.00;;;11.80;99.90;;;;;;6330379;28;20067;-84
2022/09/28 06:25:13;;;;;;;0.00;0.00;;;11.80;99.90;;;;;;6330215;28;20051;-83
2022/09/28 06:28:15;;;;;;;0.00;0.00;;;11.90;99.90;;;;;;6296669;28;20075;-84
2022/09/28 06:31:19;;;;;;;0.00;0.00;;;11.90;99.90;;;;;;6281453;28;20060;-83
2022/09/28 06:34:23;;;;;;;0.00;0.00;;;12.00;99.90;;;;;;6278483;28;20049;-83
2022/09/28 06:37:26;;;;;;;0.00;0.00;;;12.10;99.90;;;;;;6285786;28;20049;-84
2022/09/28 06:40:28;;;;;;;0.00;0.00;;;12.20;99.90;;;;;;6273995;28;20048;-84
2022/09/28 06:43:30;;;;;;;0.00;0.00;;;12.20;99.90;;;;;;6276695;28;20049;-84
2022/09/28 06:46:32;;;;;;;0.00;0.00;;;12.30;99.90;;;;;;6281445;28;20048;-84
2022/09/28 06:49:35;;;;;;;0.00;0.00;;;12.30;99.90;;;;;;6281240;28;20055;-84
2022/09/28 06:52:38;;;;;;;0.00;0.00;;;12.30;99.90;;;;;;6277469;28;20051;-86
2022/09/28 06:55:41;;;;;;;0.00;0.00;;;12.40;99.90;;;;;;6276300;28;20102;-83
2022/09/28 06:58:42;;;;;;;0.00;0.00;;;12.40;99.90;;;;;;6276108;28;20052;-86
2022/09/28 07:01:44;;;;;;;0.00;0.00;;;12.40;99.90;;;;;;6277498;28;20045;-84
2022/09/28 07:04:47;;;;;;;0.00;0.00;;;12.50;99.90;;;;;;6275262;28;20049;-84
2022/09/28 07:07:49;;;;;;;0.00;0.00;;;12.70;99.90;;;;;;6282454;28;20052;-83
2022/09/28 07:10:55;;;;;;;0.03;0.03;;;12.90;99.90;;;;;;6275477;28;20045;-83
2022/09/28 07:13:56;;;;;;;0.00;0.00;;;13.10;99.90;;;;;;6275745;28;20179;-82
2022/09/28 07:16:58;;;;;;;0.00;0.00;;;13.30;99.90;;;;;;6274844;28;20041;-84
2022/09/28 07:20:02;;;;;;;0.00;0.00;;;13.70;99.90;;;;;;6275299;28;20048;-83
2022/09/28 07:23:06;;;;;;;0.00;0.00;;;14.20;99.90;;;;;;6271567;28;20041;-83
2022/09/28 07:26:08;;;;;;;0.00;0.00;;;14.40;99.90;;;;;;6275368;28;20044;-84
2022/09/28 07:29:10;;;;;;;0.00;0.00;;;14.70;99.90;;;;;;6274991;28;20072;-84
2022/09/28 07:32:12;;;;;;;0.00;0.00;;;15.10;99.90;;;;;;6276491;28;20533;-84
2022/09/28 07:35:15;;;;;;;0.00;0.00;;;15.30;99.90;;;;;;6275020;28;20056;-83
2022/09/28 07:38:17;;;;;;;0.00;0.00;;;15.30;99.90;;;;;;6273856;28;20052;-83
2022/09/28 07:41:25;;;;;;;0.00;0.00;;;15.40;99.90;;;;;;6274073;28;20462;-83
2022/09/28 07:44:28;;;;;;;0.00;0.00;;;15.60;99.90;;;;;;6273023;28;20045;-82
2022/09/28 07:47:30;;;;;;;0.00;0.00;;;15.60;99.90;;;;;;6273031;28;20045;-82
2022/09/28 07:50:33;;;;;;;0.00;0.00;;;15.30;99.90;;;;;;6273018;28;20544;-84
2022/09/28 07:53:37;;;;;;;0.00;0.00;;;15.10;99.90;;;;;;6273337;28;20060;-84
2022/09/28 07:56:38;;;;;;;0.00;0.00;;;15.00;99.90;;;;;;6272267;28;20070;-83
2022/09/28 07:59:40;;;;;;;0.00;0.00;;;14.90;99.90;;;;;;6272374;28;20045;-83
2022/09/28 08:02:42;;;;;;;0.00;0.00;;;14.70;99.90;;;;;;6275055;28;20502;-82
2022/09/28 08:05:45;;;;;;;0.00;0.00;;;14.70;99.90;;;;;;6277489;28;20053;-82
2022/09/28 08:08:48;;;;;;;0.98;0.98;;;14.80;99.90;;;;;;6279931;28;20040;-83
2022/09/28 08:11:50;;;;;;;0.00;0.00;;;14.90;99.90;;;;;;6274515;28;20049;-84
2022/09/28 08:14:51;;;;;;;0.00;0.00;;;15.00;99.90;;;;;;6279170;28;20521;-83
2022/09/28 08:17:53;;;;;;;1.35;1.25;;;15.10;99.90;;;;;;6278853;28;20045;-82
2022/09/28 08:24:17;;;;;;;0.00;0.00;;;15.30;99.90;;;;;;6278029;28;20139;-84
2022/09/28 08:27:19;;;;;;;0.00;0.00;;;15.30;99.90;;;;;;6277722;28;20048;-82
2022/09/28 08:30:21;;;;;;;0.00;0.00;;;15.40;99.90;;;;;;6277928;28;20072;-84
2022/09/28 08:33:23;;;;;;;0.00;0.00;;;15.60;99.90;;;;;;6277749;28;20410;-83
2022/09/28 08:36:27;;;;;;;9.20;6.00;;;15.70;99.90;;;;;;6277249;28;20067;-83
2022/09/28 08:39:28;;;;;;;0.00;0.00;;;15.80;99.90;;;;;;6277383;28;20068;-86
2022/09/28 08:42:34;;;;;;;0.00;0.00;;;15.90;99.90;;;;;;6268846;28;20045;-82
2022/09/28 08:45:36;;;;;;;0.00;0.00;;;16.00;99.90;;;;;;6253653;28;20045;-83
2022/09/28 08:48:53;;;;;;;1.80;1.23;;;16.00;99.90;;;;;;6252977;28;20052;-83
2022/09/28 08:52:00;;;;;;;9.30;2.15;;;15.90;99.90;;;;;;6253371;28;20041;-83
2022/09/28 08:55:07;;;;;;;8.03;2.37;;;15.90;99.90;;;;;;6252810;28;20045;-83
2022/09/28 08:58:13;;;;;;;12.07;2.47;;;15.70;99.90;;;;;;6252585;28;20431;-83
2022/09/28 09:01:19;;;;;;;9.90;2.30;;;15.80;99.90;;;;;;6256231;28;20056;-84
2022/09/28 09:04:20;;;;;;;5.22;2.20;;;15.90;99.90;;;;;;6279404;28;20059;-83
2022/09/28 09:07:50;;;;;;;7.20;1.92;;;16.00;99.90;;;;;;6278819;28;20045;-82
2022/09/28 09:10:56;;;;;;;6.32;1.80;;;16.20;99.90;;;;;;6272265;28;20041;-83
2022/09/28 09:14:13;;;;;;;4.00;2.15;;;16.30;99.90;;;;;;6279497;28;20124;-85
2022/09/28 09:17:23;;;;;;;10.70;2.42;;;16.40;99.90;;;;;;6279871;28;20053;-82
2022/09/28 09:20:33;;;;;;;5.25;1.33;;;16.50;99.90;;;;;;6284379;28;20040;-84
2022/09/28 09:23:40;;;;;;;6.78;1.40;;;16.50;99.90;;;;;;6280122;28;20053;-85
2022/09/28 09:26:42;;;;;;;10.27;2.22;;;16.80;99.90;;;;;;6282071;28;20391;-83
2022/09/28 09:30:02;;;;;;;11.13;2.28;;;17.00;99.90;;;;;;6283028;28;20144;-86
2022/09/28 09:33:33;;;;;;;5.63;1.73;;;17.00;99.90;;;;;;6283081;28;20055;-83
2022/09/28 09:36:45;;;;;;;5.63;1.60;;;17.10;99.90;;;;;;6278007;28;20041;-83
2022/09/28 09:40:02;;;;;;;4.97;1.75;;;17.20;99.90;;;;;;6278976;28;20052;-84
2022/09/28 09:43:32;;;;;;;3.33;1.33;;;17.30;99.90;;;;;;6278952;28;20052;-83
2022/09/28 09:46:38;;;;;;;5.97;1.73;;;17.40;99.90;;;;;;6276272;28;20041;-83
2022/09/28 09:49:43;;;;;;;6.43;2.25;;;17.60;99.90;;;;;;6275771;28;20063;-83
2022/09/28 09:52:55;;;;;;;3.95;1.80;;;17.80;99.90;;;;;;6274957;28;20045;-86
2022/09/28 09:56:07;;;;;;;7.70;2.17;;;17.80;98.80;;;;;;6275441;28;20128;-86
2022/09/28 09:59:14;;;;;;;10.30;2.00;;;17.70;99.90;;;;;;6275401;28;20053;-83
2022/09/28 10:02:23;;;;;;;3.58;1.20;;;17.50;99.00;;;;;;6275167;28;20049;-83
2022/09/28 10:05:29;;;;;;;7.45;1.60;;;17.40;99.90;;;;;;6275847;28;20060;-83
2022/09/28 10:08:37;;;;;;;10.02;2.95;;;17.30;99.90;;;;;;6274712;28;20080;-84
2022/09/28 10:11:44;;;;;;;8.25;1.90;;;17.20;99.90;;;;;;6276320;28;20396;-84
2022/09/28 10:14:46;;;;;;;11.55;2.13;;;17.10;99.90;;;;;;6277517;28;20041;-84
2022/09/28 10:17:48;;;;;;;9.30;2.33;;;17.20;99.90;;;;;;6275336;28;20045;-83
2022/09/28 10:20:49;;;;;;;5.90;1.58;;;17.60;99.90;;;;;;6276194;28;20059;-84
2022/09/28 10:23:56;;;;;;;3.83;1.10;;;17.80;98.30;;;;;;6275162;28;20049;-83
2022/09/28 10:27:05;;;;;;;2.10;1.00;;;17.70;97.00;;;;;;6274589;28;20059;-84
2022/09/28 10:30:16;;;;;;;5.10;1.17;;;17.60;96.40;;;;;;6276090;28;20049;-83
2022/09/28 10:33:30;;;;;;;6.00;0.98;;;18.00;97.10;;;;;;6276938;28;20395;-83
2022/09/28 10:36:37;;;;;;;4.43;1.02;;;18.40;95.20;;;;;;6276884;28;20041;-84
2022/09/28 10:39:46;;;;;;;6.93;1.33;;;18.50;94.40;;;;;;6275666;28;20049;-84
2022/09/28 10:42:49;;;;;;;7.60;1.25;;;18.50;94.70;;;;;;6275549;28;20041;-84
2022/09/28 10:46:01;;;;;;;11.25;1.10;;;18.70;93.60;;;;;;6277143;28;20075;-83
2022/09/28 10:49:05;;;;;;;5.53;0.77;;;19.00;92.70;;;;;;6276224;28;20053;-84
2022/09/28 10:52:37;;;;;;;8.73;1.00;;;19.20;92.10;;;;;;6276390;28;20045;-83
2022/09/28 10:55:39;;;;;;;6.47;1.42;;;19.40;91.40;;;;;;6275162;28;20060;-84
2022/09/28 10:58:43;;;;;;;5.53;0.88;;;19.70;90.50;;;;;;6275999;28;20119;-85
2022/09/28 11:01:44;;;;;;;6.60;1.08;;;20.00;89.10;;;;;;6277325;28;20052;-87
2022/09/28 11:04:52;;;;;;;5.45;0.80;;;20.10;87.40;;;;;;6276949;28;20049;-85
2022/09/28 11:07:58;;;;;;;1.92;0.60;;;20.20;85.50;;;;;;6276227;28;20045;-86
2022/09/28 11:11:09;;;;;;;11.27;1.38;;;20.30;84.90;;;;;;6275914;28;20126;-84
2022/09/28 11:14:36;;;;;;;3.17;0.63;;;20.40;83.60;;;;;;6278199;28;20049;-83
2022/09/28 11:17:40;;;;;;;5.55;1.80;;;20.50;84.10;;;;;;6276930;28;20045;-83
2022/09/28 11:20:42;;;;;;;4.22;0.57;;;20.60;80.00;;;;;;6279425;28;20056;-84
2022/09/28 11:24:00;;;;;;;4.65;0.82;;;20.50;80.90;;;;;;6268996;28;20052;-82
2022/09/28 11:27:02;;;;;;;7.40;0.87;;;20.90;82.40;;;;;;6278137;28;20045;-84
2022/09/28 11:30:05;;;;;;;3.03;0.68;;;21.20;79.40;;;;;;6276493;28;20056;-84
2022/09/28 11:33:13;;;;;;;4.68;0.90;;;21.40;75.10;;;;;;6276760;28;20060;-82
2022/09/28 11:36:31;;;;;;;5.22;1.20;;;21.40;74.80;;;;;;6276020;28;20055;-83
2022/09/28 11:39:42;;;;;;;6.93;0.90;;;21.50;72.50;;;;;;6282646;28;20529;-84
2022/09/28 11:42:52;;;;;;;6.50;0.70;;;21.50;72.80;;;;;;6282401;28;20060;-83
2022/09/28 11:46:01;;;;;;;4.78;0.68;;;21.80;73.30;;;;;;6280836;28;20080;-85
2022/09/28 11:49:10;;;;;;;5.07;1.02;;;21.90;70.70;;;;;;6282758;22;20041;-81
2022/09/28 11:52:18;;;;;;;5.78;1.92;;;21.50;71.10;;;;;;6230516;28;20054;-80
2022/09/28 11:55:28;;;;;;;3.70;1.35;;;21.20;72.50;;;;;;6236546;28;20048;-80
2022/09/28 11:58:32;;;;;;;7.60;0.85;;;21.10;73.10;;;;;;6229801;28;20057;-80
2022/09/28 12:01:40;;;;;;;2.72;0.90;;;21.10;72.10;;;;;;6230007;28;20411;-81
2022/09/28 12:04:46;;;;;;;7.47;4.07;;;20.70;72.40;;;;;;6232246;28;20052;-81
2022/09/28 12:07:53;;;;;;;3.80;0.90;;;20.50;75.10;;;;;;6231434;28;20042;-83
2022/09/28 12:11:01;;;;;;;5.97;1.02;;;20.30;74.60;;;;;;6231366;28;20046;-82
2022/09/28 12:14:06;;;;;;;2.85;1.80;;;20.20;74.00;;;;;;6206419;28;20051;-82
2022/09/28 12:17:22;;;;;;;4.55;0.68;;;20.10;74.80;;;;;;6206862;28;20050;-81
2022/09/28 12:20:28;;;;;;;3.85;0.77;;;20.10;74.10;;;;;;6209673;28;20050;-81
2022/09/28 12:23:35;;;;;;;1.65;0.60;;;20.20;74.50;;;;;;6218587;28;20053;-81
2022/09/28 12:26:44;;;;;;;6.05;0.90;;;20.20;71.70;;;;;;6215094;28;20062;-80
2022/09/28 12:29:51;;;;;;;3.50;0.65;;;20.20;71.40;;;;;;6195482;28;20054;-82
2022/09/28 12:32:58;;;;;;;5.30;0.93;;;20.30;72.40;;;;;;6186485;28;20050;-82
2022/09/28 12:36:11;;;;;;;4.23;0.40;;;20.50;71.90;;;;;;6186483;28;20139;-81
2022/09/28 12:39:31;;;;;;;4.57;0.43;;;21.00;71.00;;;;;;6190836;28;20043;-82
2022/09/28 12:42:51;;;;;;;2.75;0.40;;;21.50;68.50;;;;;;6188758;28;20051;-81
2022/09/28 12:46:22;;;;;;;3.38;0.43;;;22.00;67.70;;;;;;6191906;28;20137;-82
2022/09/28 12:49:33;;;;;;;4.40;1.90;;;22.30;66.30;;;;;;6186290;28;20149;-82
2022/09/28 12:52:43;;;;;;;6.05;2.05;;;22.10;66.10;;;;;;6185532;28;20046;-81
2022/09/28 12:55:59;;;;;;;2.67;0.38;;;22.00;67.00;;;;;;6186777;28;20511;-83
2022/09/28 12:59:15;;;;;;;4.35;0.98;;;21.90;67.40;;;;;;6190164;28;20051;-80
2022/09/28 13:02:37;;;;;;;1.67;0.75;;;21.90;66.80;;;;;;6191873;28;20055;-80
2022/09/28 13:05:58;;;;;;;4.88;1.17;;;22.10;66.50;;;;;;6191025;28;20105;-82
2022/09/28 13:09:14;;;;;;;2.03;0.43;;;22.60;65.50;;;;;;6184723;28;20043;-83
2022/09/28 13:12:32;;;;;;;2.58;0.63;;;23.20;61.60;;;;;;6186063;28;20055;-81
2022/09/28 13:15:44;;;;;;;0.87;0.50;;;23.40;59.00;;;;;;6167895;28;20053;-84
2022/09/28 13:18:54;;;;;;;3.00;0.65;;;23.30;57.80;;;;;;6163779;28;20057;-81
2022/09/28 13:22:04;;;;;;;1.08;0.50;;;22.80;59.30;;;;;;6161802;28;20058;-82
2022/09/28 13:25:13;;;;;;;4.93;0.60;;;22.30;58.70;;;;;;6185347;28;20046;-81
2022/09/28 13:28:18;;;;;;;2.00;0.85;;;21.80;60.00;;;;;;6184257;28;20127;-82
2022/09/28 13:31:28;;;;;;;3.25;0.50;;;21.50;61.00;;;;;;6181699;28;20053;-83
2022/09/28 13:34:35;;;;;;;2.60;0.60;;;21.20;61.80;;;;;;6184113;28;20054;-84
2022/09/28 13:37:37;;;;;;;2.73;0.67;;;21.10;61.60;;;;;;6187254;28;20179;-82
2022/09/28 13:41:14;;;;;;;2.50;0.32;;;20.70;61.20;;;;;;6184215;28;20286;-81
2022/09/28 13:44:35;;;;;;;1.20;0.43;;;20.30;62.00;;;;;;6187700;28;20053;-84
2022/09/28 13:47:52;;;;;;;1.95;0.60;;;20.10;62.00;;;;;;6185680;28;20504;-82
2022/09/28 13:51:18;;;;;;;0.85;0.28;;;20.20;62.10;;;;;;6181041;28;20046;-83
2022/09/28 13:54:30;;;;;;;5.20;0.63;;;20.20;61.70;;;;;;6181412;28;20057;-82
2022/09/28 13:57:40;;;;;;;3.05;0.60;;;20.20;62.70;;;;;;6184649;28;20059;-82
2022/09/28 14:00:50;;;;;;;2.83;0.75;;;20.20;63.10;;;;;;6184204;28;20039;-84
2022/09/28 14:04:11;;;;;;;8.75;3.47;;;20.10;62.90;;;;;;6185006;28;20061;-83
2022/09/28 14:07:19;;;;;;;2.60;0.40;;;19.80;63.80;;;;;;6184110;28;20054;-83
2022/09/28 14:10:24;;;;;;;6.82;1.98;;;19.60;63.90;;;;;;6180687;28;20076;-83
2022/09/28 14:13:58;;;;;;;4.22;0.40;;;19.30;65.30;;;;;;6193320;28;20115;-82
2022/09/28 14:17:53;;;;;;;1.73;0.32;;;19.00;65.10;;;;;;6162199;28;20055;-82
2022/09/28 14:21:20;;;;;;;4.30;0.30;;;18.70;65.30;;;;;;6162249;28;20413;-83
2022/09/28 14:24:44;;;;;;;1.02;0.30;;;18.50;66.50;;;;;;6180911;28;20047;-84
2022/09/28 14:28:03;;;;;;;1.45;0.65;;;18.40;66.60;;;;;;6198225;28;20051;-82
2022/09/28 14:31:22;;;;;;;1.08;0.60;;;18.20;66.90;;;;;;6212083;28;20475;-84
2022/09/28 14:34:33;;;;;;;1.65;0.50;;;18.20;68.20;;;;;;6213570;28;20121;-83
2022/09/28 14:41:11;;;;;;;1.98;0.68;;;18.30;69.10;;;;;;6208733;28;20050;-82
2022/09/28 14:44:15;;;;;;;2.22;0.45;;;18.40;68.60;;;;;;6208305;28;20050;-82
2022/09/28 14:47:35;;;;;;;1.08;0.43;;;18.40;68.60;;;;;;6207529;28;20050;-82
2022/09/28 14:50:37;;;;;;;0.82;0.13;;;18.40;67.70;;;;;;6207664;28;20054;-82
2022/09/28 14:53:41;;;;;;;1.80;0.30;;;18.40;67.90;;;;;;6216415;28;20050;-82
2022/09/28 14:56:47;;;;;;;2.05;0.32;;;18.40;67.60;;;;;;6208053;28;20042;-83
2022/09/28 14:59:49;;;;;;;1.42;0.47;;;18.30;69.00;;;;;;6208246;28;20134;-83
2022/09/28 15:02:53;;;;;;;2.97;0.60;;;18.20;67.30;;;;;;6210413;28;20133;-82
2022/09/28 15:06:00;;;;;;;5.38;0.80;;;18.20;69.00;;;;;;6212444;28;20046;-82
2022/09/28 15:09:08;;;;;;;1.77;0.40;;;17.90;70.00;;;;;;6217623;28;20453;-81
2022/09/28 15:12:16;;;;;;;2.78;0.63;;;17.80;71.00;;;;;;6214829;28;20054;-81
2022/09/28 15:15:27;;;;;;;3.40;0.40;;;17.80;72.00;;;;;;6206536;28;20054;-83
2022/09/28 15:18:50;;;;;;;3.38;0.55;;;17.90;72.00;;;;;;6185581;28;20051;-83
2022/09/28 15:21:52;;;;;;;3.97;0.50;;;18.00;71.40;;;;;;6167060;28;20051;-81
2022/09/28 15:24:56;;;;;;;7.07;1.60;;;18.00;70.80;;;;;;6201394;28;20046;-81
2022/09/28 15:28:02;;;;;;;5.05;2.10;;;17.90;71.30;;;;;;6192151;28;20049;-82
2022/09/28 15:31:05;;;;;;;33.05;15.07;;;17.90;71.10;;;;;;6198022;28;20107;-81
2022/09/28 15:37:45;;;;;;;4.13;2.00;;;17.70;72.50;;;;;;6169973;29;20050;-83
2022/09/28 15:40:49;;;;;;;1.58;0.40;;;17.70;72.20;;;;;;6195827;28;20353;-81
2022/09/28 15:44:09;;;;;;;4.53;1.25;;;17.60;72.30;;;;;;6201293;28;20058;-81
2022/09/28 15:47:14;;;;;;;6.18;1.52;;;17.50;73.40;;;;;;6193282;28;20223;-81
2022/09/28 15:50:25;;;;;;;5.25;0.90;;;17.50;74.30;;;;;;6200884;28;20051;-81
2022/09/28 15:53:30;;;;;;;1.80;0.77;;;17.40;76.30;;;;;;6209206;28;20055;-80
2022/09/28 15:56:52;;;;;;;1.20;0.50;;;17.00;80.50;;;;;;6204626;28;20082;-79
2022/09/28 15:59:58;;;;;;;2.90;0.60;;;16.40;86.90;;;;;;6202154;28;20050;-82
2022/09/28 16:03:04;;;;;;;3.80;1.38;;;15.80;88.80;;;;;;6201127;28;20070;-80
2022/09/28 16:06:08;;;;;;;2.33;0.80;;;15.40;90.60;;;;;;6199556;28;20059;-80
2022/09/28 16:09:30;;;;;;;1.67;0.52;;;15.00;91.70;;;;;;6187937;28;20043;-79
2022/09/28 16:12:47;;;;;;;2.40;0.45;;;14.70;91.80;;;;;;6189162;28;20136;-81
2022/09/28 16:15:56;;;;;;;2.60;0.65;;;14.50;92.80;;;;;;6182573;28;20081;-82
2022/09/28 16:19:00;;;;;;;25.63;11.70;;;14.60;93.90;;;;;;6164798;28;20489;-81
2022/09/28 16:22:06;;;;;;;4.00;1.10;;;14.60;96.30;;;;;;6166995;28;20111;-81